Airfield :
LOGIN :

Register | Disclaimer

   EN    FR    IT 

 










Legend :    VFR   Marginal VFR   IFR   Intensive IFR   Very Intensive IFR
Visi :
Ceiling :
>= 8 km
>= 3000ft
5 to 8 km
1000 to 3000 ft
1500m to 5 km
500 to 1000 ft
800 to 1500m
200 to 500 ft
< 800m
< 200 ft
Symbols :   Thunderstorms  Fog  Heavy snow  Heavy precipitations  Wind > 20 kt
SIGMETs :     Misc.  Thunderstorms  Icing  Turbulence  Mountain Waves  Volcanic Ashes






- Airport Elevation : 297 ft


EGVP - Middle Wallop

CURRENT METAR :
  • 130950Z 29019KT 9999 FEW022 07/01 Q0982 RMK BLU

EXPIRED METARs :
  • 130850Z 29018G30KT 9999 FEW033 06/01 Q0981 RMK BLU
  • 130821Z 28023G33KT 9999 FEW025 06/01 Q0980 NOSIG RMK BLU BLU
  • 130750Z 28020KT 9999 FEW025 06/01 Q0979 NOSIG RMK BLU BLU

TAF AMD TAF EGVP
Valid from the 13 at 09:00 until the 13 at 17:00 UTC


130814Z 1309/1317 27020G30KT 9999 SCT030
PROB40
TEMPO 1309/1311 27028G40KT
ATIS : +44 1980 674 142



MET'MAP, your aeronautical weather chart ! - Copyright ORBIFLY December 2007 - Disclaimer

ORBIFLY MET'MAP TEAM :

Programming & Development : Alexandra Zaïnal
Concept & original design : Baudouin d'Aumeries
Assistance for programming : Marc-Olivier Méhu
Technical & hardware support : Manuel Goepfert

Contact : metmap@orbifly.com




SOURCES & CREDITS :

   NOAA